South Coast: Past 24 Hour Conditions

 

Bonavista

09:30 PM NDT 20 April 2014
This table is a summary of hourly weather conditions for the past 24 hours.
Date / Time
(NDT)
Wind(knots) Conditions Visibility(km) Pressure(kPa) Air tempC) Relative humidity(%) Dew pointC) Wind Chill
20 April 2014
21:30 NW 23 gust 29 N/A N/A 101.6 -2 69 -7 -10
20:30 NW 26 N/A N/A 101.6 -2 65 -8 -11
19:30 NW 30 gust 35 N/A N/A 101.6 -2 61 -9 -11
18:30 NNW 32 N/A N/A 101.5 -2 65 -8 -12
17:30 NNW 30 gust 35 N/A N/A 101.4 -2 67 -7 -11
16:30 NNW 31 gust 36 N/A N/A 101.3 -2 71 -7 -11
15:30 NNW 28 gust 34 N/A N/A 101.3 -2 71 -6 -11
14:30 NNW 32 gust 38 N/A N/A 101.3 -2 74 -6 -12
13:30 NW 32 gust 38 N/A N/A 101.2 -2 71 -7 -12
12:30 NW 33 gust 40 N/A N/A 101.2 -3 74 -7 -12
11:30 NW 29 gust 39 N/A N/A 101.2 -3 76 -6 -12
10:30 NW 36 gust 42 N/A N/A 101.1 -3 77 -6 -13
9:30 NW 34 gust 43 N/A N/A 101.0 -3 80 -6 -13
8:30 NNW 36 gust 43 N/A N/A 100.9 -3 88 -5 -13
7:30 NNW 38 gust 46 N/A N/A 100.8 -3 93 -4 -13
6:30 NNW 31 gust 39 N/A N/A 100.7 -2 95 -3 -11
5:30 NNW 30 gust 37 N/A N/A 100.7 -2 94 -3 -11
4:30 NNW 33 gust 39 N/A N/A 100.6 -2 94 -3 -12
3:30 NNW 32 gust 41 N/A N/A 100.6 -3 96 -3 -12
2:30 N 28 gust 35 N/A N/A 100.6 -2 96 -3 -12
1:30 N 32 N/A N/A 100.6 -2 96 -3 -12
0:30 N 27 gust 37 N/A N/A 100.6 -2 97 -3 -11
19 April 2014
23:30 N 25 gust 30 N/A N/A 100.7 -2 97 -2 -11
22:30 NNE 23 gust 30 N/A N/A 100.7 -2 97 -2 -10
21:30 NNE 22 N/A N/A 100.8 -2 97 -2 -10
 
Map of Atlantic - Newfoundland marine weather areas Southwestern Grand Banks - 44138 Banquereau - 44139 Tail of the Bank - 44140 Nickerson Bank - 44251 Northeast Burgeo Bank - 44255 Blanc-Sablon Airport Cap Whittle Chevery Natashquan Airport Heath Point Miscou Island Grand Étang Ingonish Beach North Mountain St.Paul Island J.A. Douglas McCurdy Sydney Airport Charlottetown Airport East Point North Cape Argentia Bonavista Burgeo Cape Race Corner Brook Daniel's Harbour Englee Ferolle Point La Scie Port aux Basques Rocky Harbour Sagona Island St. Anthony Airport St. John's Int'l Airport St. Lawrence Stephenville Airport Twillingate Winterland Wreckhouse Cartwright Airport Mary's Harbour Grates Cove Pool's Island Marticot Island Long Pond Îles de la Madeleine Airport
Legend: buoyBuoy land stationLand Station